createdAt,value
2023-01-29T00:05:51.214Z,16.4
2023-01-29T00:26:16.368Z,16.4
2023-01-29T00:46:36.715Z,16.4
2023-01-29T01:05:05.859Z,16.3
2023-01-29T01:25:28.926Z,16.3
2023-01-29T01:45:29.506Z,16.2
2023-01-29T02:06:34.942Z,16.2
2023-01-29T02:24:41.583Z,16.2
2023-01-29T02:46:13.023Z,16.1
2023-01-29T03:06:36.808Z,16
2023-01-29T03:26:17.192Z,16
2023-01-29T03:44:46.999Z,16
2023-01-29T04:04:42.514Z,16
2023-01-29T04:24:39.599Z,16
2023-01-29T04:46:14.013Z,15.9
2023-01-29T05:04:46.150Z,15.9
2023-01-29T05:26:14.041Z,15.9
2023-01-29T05:45:27.844Z,15.9
2023-01-29T06:06:12.681Z,15.9
2023-01-29T06:24:43.099Z,15.9
2023-01-29T06:45:50.993Z,15.9
2023-01-29T16:44:44.332Z,17
2023-01-29T17:06:38.612Z,17.1
2023-01-29T17:26:13.661Z,17.1
2023-01-29T17:46:13.635Z,17.3
2023-01-29T18:05:50.009Z,17.4
2023-01-29T18:24:43.167Z,17.3
2023-01-29T18:44:42.940Z,17.2
2023-01-29T19:06:37.121Z,17.2
2023-01-29T19:26:57.070Z,17.2
2023-01-29T19:46:13.243Z,17.2
2023-01-29T20:05:50.711Z,17.2
2023-01-29T20:27:19.417Z,17.1
2023-01-29T20:46:12.822Z,17.1
2023-01-29T21:06:16.614Z,17.1
2023-01-29T21:26:01.176Z,17
2023-01-29T21:46:34.998Z,17
2023-01-29T22:05:28.354Z,16.9
2023-01-29T22:26:13.650Z,16.7
2023-01-29T22:45:53.462Z,16.6
2023-01-29T23:05:53.614Z,16.5
2023-01-29T23:26:11.960Z,16.5
2023-01-29T23:46:34.746Z,16.4
